• Join FlightAware (Why Join?)
  • Login
  • US Flag 
05:05PM EDT


 

Airport Tracker/Info


-or-


 

Live Flight TrackerFlight Track Log ✈ GAO2725 ✈ 11-Feb-2014 ✈ EFTU / TKU - ESSA / ARN

Flight Track Log - Related Links

Times and Time Zones

All times are in EST time to prevent confusion due to time zone crossing. See the GAO2725 flight status page for this flight to view local times or setup timezone preferences in your user account.

Time Position Orientation Groundspeed Altitude Reporting Facility
EST Latitude Longitude Course Direction KTS MPH feet Rate Location/Type
09:30AM 60.4460 21.8822 250° West  Level Estimated
09:31AM 60.4230 21.7557 250° West  Level Estimated
09:32AM 60.3999 21.6294 250° West  Level Estimated
09:33AM 60.3768 21.5033 250° West  Level Estimated
09:34AM 60.3534 21.3773 250° West  Level Estimated
09:35AM 60.3300 21.2515 249° West  Level Estimated
09:36AM 60.3065 21.1259 249° West  Level Estimated
09:37AM 60.2828 21.0005 249° West  Level Estimated
09:38AM 60.2590 20.8753 249° West  Level Estimated
09:39AM 60.2351 20.7502 249° West  Level Estimated
09:40AM 60.2111 20.6254 249° West  Level Estimated
09:41AM 60.1869 20.5007 249° West  Level Estimated
09:42AM 60.1627 20.3762 249° West  Level Estimated
09:43AM 60.1383 20.2518 249° West  Level Estimated
09:44AM 60.1138 20.1277 248° West  Level Estimated
09:45AM 60.0892 20.0037 248° West  Level Estimated
09:46AM 60.0645 19.8800 248° West  Level Estimated
09:47AM 60.0396 19.7564 248° West  Level Estimated
09:48AM 60.0147 19.6330 248° West  Level Estimated
09:49AM 59.9896 19.5098 248° West  Level Estimated
09:50AM 59.9644 19.3868 248° West  Level Estimated
09:51AM 59.9391 19.2640 248° West  Level Estimated
09:52AM 59.9137 19.1413 248° West  Level Estimated
09:53AM 59.8882 19.0188 247° West  Level Estimated
09:54AM 59.8626 18.8966 247° West  Level Estimated
09:55AM 59.8368 18.7745 247° West  Level Estimated
09:56AM 59.8110 18.6526 247° West  Level Estimated
09:57AM 59.7850 18.5309 247° West  Level Estimated
09:58AM 59.7589 18.4094 247° West  Level Estimated
09:59AM 59.7327 18.2881 247° West  Level Estimated
10:00AM 59.7064 18.1669 247° West  Level Estimated
10:01AM 59.6799 18.0460 247° West  Level Estimated
10:02AM 59.6534 17.9252 247° West  Level Estimated
10:03AM 59.6519 17.9186 246° West  Level Estimated
10:04AM 59.6519 17.9186 North  Level Estimated
10:05AM 59.6519 17.9186 North  Level Estimated
10:06AM 59.6519 17.9186 North  Level Estimated
10:07AM 59.6519 17.9186 North  Level Estimated
10:08AM 59.6519 17.9186 North  Level Estimated
10:09AM 59.6519 17.9186 North  Level Estimated
10:10AM 59.6519 17.9186 North  Level Estimated
10:11AM 59.6519 17.9186 North  Level Estimated